sensor_id;sensor_type;location;lat;lon;timestamp;P1;durP1;ratioP1;P2;durP2;ratioP2
47758;SDS011;33520;55.122;35.582;2022-07-29T00:00:59;0.30;;;0.30;;
47758;SDS011;33520;55.122;35.582;2022-07-29T00:03:26;0.85;;;0.40;;
47758;SDS011;33520;55.122;35.582;2022-07-29T00:08:18;0.65;;;0.38;;
47758;SDS011;33520;55.122;35.582;2022-07-29T00:10:45;1.80;;;0.40;;
47758;SDS011;33520;55.122;35.582;2022-07-29T00:13:12;0.38;;;0.38;;
47758;SDS011;33520;55.122;35.582;2022-07-29T00:18:04;0.28;;;0.28;;
47758;SDS011;33520;55.122;35.582;2022-07-29T00:22:57;0.30;;;0.30;;
47758;SDS011;33520;55.122;35.582;2022-07-29T00:25:23;1.27;;;0.45;;
47758;SDS011;33520;55.122;35.582;2022-07-29T00:27:49;0.50;;;0.43;;
47758;SDS011;33520;55.122;35.582;2022-07-29T00:32:42;0.30;;;0.30;;
47758;SDS011;33520;55.122;35.582;2022-07-29T00:37:53;0.40;;;0.38;;
47758;SDS011;33520;55.122;35.582;2022-07-29T00:40:19;0.57;;;0.40;;
47758;SDS011;33520;55.122;35.582;2022-07-29T00:47:39;0.40;;;0.30;;
47758;SDS011;33520;55.122;35.582;2022-07-29T00:50:07;0.40;;;0.30;;
47758;SDS011;33520;55.122;35.582;2022-07-29T00:52:35;1.60;;;0.40;;
47758;SDS011;33520;55.122;35.582;2022-07-29T00:55:03;0.90;;;0.73;;
47758;SDS011;33520;55.122;35.582;2022-07-29T00:57:30;1.23;;;0.63;;
47758;SDS011;33520;55.122;35.582;2022-07-29T00:59:57;1.55;;;0.50;;
47758;SDS011;33520;55.122;35.582;2022-07-29T01:04:50;2.35;;;0.40;;
47758;SDS011;33520;55.122;35.582;2022-07-29T01:07:17;1.50;;;0.28;;
47758;SDS011;33520;55.122;35.582;2022-07-29T01:09:43;0.45;;;0.20;;
47758;SDS011;33520;55.122;35.582;2022-07-29T01:12:12;1.55;;;0.40;;
47758;SDS011;33520;55.122;35.582;2022-07-29T01:14:42;1.10;;;0.40;;
47758;SDS011;33520;55.122;35.582;2022-07-29T01:17:28;0.60;;;0.40;;
47758;SDS011;33520;55.122;35.582;2022-07-29T01:23:01;1.42;;;0.65;;
47758;SDS011;33520;55.122;35.582;2022-07-29T01:31:00;4.13;;;0.85;;
47758;SDS011;33520;55.122;35.582;2022-07-29T01:33:28;2.53;;;0.90;;
47758;SDS011;33520;55.122;35.582;2022-07-29T01:36:16;3.00;;;0.98;;
47758;SDS011;33520;55.122;35.582;2022-07-29T01:38:45;1.98;;;0.90;;
47758;SDS011;33520;55.122;35.582;2022-07-29T01:41:18;5.13;;;1.10;;
47758;SDS011;33520;55.122;35.582;2022-07-29T01:43:49;2.30;;;1.08;;
47758;SDS011;33520;55.122;35.582;2022-07-29T01:46:20;3.45;;;1.20;;
47758;SDS011;33520;55.122;35.582;2022-07-29T01:48:54;2.97;;;1.08;;
47758;SDS011;33520;55.122;35.582;2022-07-29T01:51:38;1.65;;;1.00;;
47758;SDS011;33520;55.122;35.582;2022-07-29T01:54:19;6.00;;;1.20;;
47758;SDS011;33520;55.122;35.582;2022-07-29T01:56:58;1.63;;;1.17;;
47758;SDS011;33520;55.122;35.582;2022-07-29T01:59:25;2.88;;;1.33;;
47758;SDS011;33520;55.122;35.582;2022-07-29T02:01:53;1.55;;;1.10;;
47758;SDS011;33520;55.122;35.582;2022-07-29T02:04:20;1.85;;;1.35;;
47758;SDS011;33520;55.122;35.582;2022-07-29T02:06:47;2.80;;;1.40;;
47758;SDS011;33520;55.122;35.582;2022-07-29T02:09:15;1.63;;;1.10;;
47758;SDS011;33520;55.122;35.582;2022-07-29T02:11:47;1.98;;;1.33;;
47758;SDS011;33520;55.122;35.582;2022-07-29T02:14:17;3.75;;;1.73;;
47758;SDS011;33520;55.122;35.582;2022-07-29T02:16:45;2.05;;;1.50;;
47758;SDS011;33520;55.122;35.582;2022-07-29T02:19:13;2.10;;;1.40;;
47758;SDS011;33520;55.122;35.582;2022-07-29T02:21:40;2.10;;;1.27;;
47758;SDS011;33520;55.122;35.582;2022-07-29T02:24:08;3.17;;;1.15;;
47758;SDS011;33520;55.122;35.582;2022-07-29T02:26:36;2.28;;;1.08;;
47758;SDS011;33520;55.122;35.582;2022-07-29T02:29:03;1.77;;;1.30;;
47758;SDS011;33520;55.122;35.582;2022-07-29T02:33:58;4.72;;;1.33;;
47758;SDS011;33520;55.122;35.582;2022-07-29T02:36:25;1.83;;;1.27;;
47758;SDS011;33520;55.122;35.582;2022-07-29T02:38:52;2.42;;;1.30;;
47758;SDS011;33520;55.122;35.582;2022-07-29T02:41:24;3.35;;;1.92;;
47758;SDS011;33520;55.122;35.582;2022-07-29T02:43:55;1.55;;;1.33;;
47758;SDS011;33520;55.122;35.582;2022-07-29T02:46:25;2.42;;;1.02;;
47758;SDS011;33520;55.122;35.582;2022-07-29T02:49:04;2.80;;;1.20;;
47758;SDS011;33520;55.122;35.582;2022-07-29T02:54:31;5.25;;;1.40;;
47758;SDS011;33520;55.122;35.582;2022-07-29T02:57:14;3.37;;;1.30;;
47758;SDS011;33520;55.122;35.582;2022-07-29T02:59:52;2.63;;;1.02;;
47758;SDS011;33520;55.122;35.582;2022-07-29T03:02:19;2.92;;;1.10;;
47758;SDS011;33520;55.122;35.582;2022-07-29T03:04:46;1.52;;;1.08;;
47758;SDS011;33520;55.122;35.582;2022-07-29T03:07:14;2.28;;;1.10;;
47758;SDS011;33520;55.122;35.582;2022-07-29T03:09:41;1.30;;;1.02;;
47758;SDS011;33520;55.122;35.582;2022-07-29T03:12:08;2.55;;;1.13;;
47758;SDS011;33520;55.122;35.582;2022-07-29T03:14:35;3.10;;;1.10;;
47758;SDS011;33520;55.122;35.582;2022-07-29T03:17:01;1.98;;;1.30;;
47758;SDS011;33520;55.122;35.582;2022-07-29T03:19:28;2.85;;;1.35;;
47758;SDS011;33520;55.122;35.582;2022-07-29T03:21:56;2.28;;;1.08;;
47758;SDS011;33520;55.122;35.582;2022-07-29T03:24:30;2.95;;;1.25;;
47758;SDS011;33520;55.122;35.582;2022-07-29T03:26:58;3.38;;;1.30;;
47758;SDS011;33520;55.122;35.582;2022-07-29T03:29:25;2.92;;;1.42;;
47758;SDS011;33520;55.122;35.582;2022-07-29T03:31:51;1.33;;;0.90;;
47758;SDS011;33520;55.122;35.582;2022-07-29T03:34:18;4.80;;;0.88;;
47758;SDS011;33520;55.122;35.582;2022-07-29T03:36:44;3.38;;;0.93;;
47758;SDS011;33520;55.122;35.582;2022-07-29T03:39:10;2.83;;;0.68;;
47758;SDS011;33520;55.122;35.582;2022-07-29T03:41:40;2.00;;;0.90;;
47758;SDS011;33520;55.122;35.582;2022-07-29T03:44:07;2.03;;;0.95;;
47758;SDS011;33520;55.122;35.582;2022-07-29T03:46:35;0.75;;;0.75;;
47758;SDS011;33520;55.122;35.582;2022-07-29T03:49:02;2.38;;;0.70;;
47758;SDS011;33520;55.122;35.582;2022-07-29T03:51:30;3.53;;;1.27;;
47758;SDS011;33520;55.122;35.582;2022-07-29T03:53:56;3.25;;;0.80;;
47758;SDS011;33520;55.122;35.582;2022-07-29T03:56:22;1.00;;;0.70;;
47758;SDS011;33520;55.122;35.582;2022-07-29T03:58:52;2.13;;;0.82;;
47758;SDS011;33520;55.122;35.582;2022-07-29T04:01:19;2.90;;;0.70;;
47758;SDS011;33520;55.122;35.582;2022-07-29T04:03:46;1.05;;;0.73;;
47758;SDS011;33520;55.122;35.582;2022-07-29T04:06:13;0.98;;;0.70;;
47758;SDS011;33520;55.122;35.582;2022-07-29T04:08:40;2.53;;;0.73;;
47758;SDS011;33520;55.122;35.582;2022-07-29T04:11:06;3.90;;;0.70;;
47758;SDS011;33520;55.122;35.582;2022-07-29T04:13:32;1.30;;;0.68;;
47758;SDS011;33520;55.122;35.582;2022-07-29T04:15:59;0.95;;;0.60;;
47758;SDS011;33520;55.122;35.582;2022-07-29T04:18:25;2.63;;;0.80;;
47758;SDS011;33520;55.122;35.582;2022-07-29T04:20:52;3.05;;;0.93;;
47758;SDS011;33520;55.122;35.582;2022-07-29T04:23:18;3.55;;;0.77;;
47758;SDS011;33520;55.122;35.582;2022-07-29T04:25:44;1.27;;;0.60;;
47758;SDS011;33520;55.122;35.582;2022-07-29T04:28:10;1.42;;;0.60;;
47758;SDS011;33520;55.122;35.582;2022-07-29T04:30:37;1.80;;;0.60;;
47758;SDS011;33520;55.122;35.582;2022-07-29T04:33:04;2.13;;;0.52;;
47758;SDS011;33520;55.122;35.582;2022-07-29T04:35:36;2.05;;;0.40;;
47758;SDS011;33520;55.122;35.582;2022-07-29T04:38:03;1.35;;;0.60;;
47758;SDS011;33520;55.122;35.582;2022-07-29T04:40:29;2.38;;;0.65;;
47758;SDS011;33520;55.122;35.582;2022-07-29T04:42:56;0.88;;;0.50;;
47758;SDS011;33520;55.122;35.582;2022-07-29T04:45:22;1.27;;;0.70;;
47758;SDS011;33520;55.122;35.582;2022-07-29T04:47:48;2.72;;;0.50;;
47758;SDS011;33520;55.122;35.582;2022-07-29T04:50:15;2.30;;;1.15;;
47758;SDS011;33520;55.122;35.582;2022-07-29T04:52:43;1.75;;;0.50;;
47758;SDS011;33520;55.122;35.582;2022-07-29T04:55:09;0.47;;;0.47;;
47758;SDS011;33520;55.122;35.582;2022-07-29T04:57:36;2.17;;;0.45;;
47758;SDS011;33520;55.122;35.582;2022-07-29T05:00:03;0.60;;;0.40;;
47758;SDS011;33520;55.122;35.582;2022-07-29T05:02:30;1.30;;;0.40;;
47758;SDS011;33520;55.122;35.582;2022-07-29T05:04:57;1.08;;;0.43;;
47758;SDS011;33520;55.122;35.582;2022-07-29T05:07:23;2.53;;;0.30;;
47758;SDS011;33520;55.122;35.582;2022-07-29T05:09:49;1.08;;;0.47;;
47758;SDS011;33520;55.122;35.582;2022-07-29T05:12:15;0.75;;;0.30;;
47758;SDS011;33520;55.122;35.582;2022-07-29T05:14:42;1.27;;;0.50;;
47758;SDS011;33520;55.122;35.582;2022-07-29T05:17:08;1.27;;;0.43;;
47758;SDS011;33520;55.122;35.582;2022-07-29T05:19:34;0.82;;;0.60;;
47758;SDS011;33520;55.122;35.582;2022-07-29T05:22:01;1.88;;;0.60;;
47758;SDS011;33520;55.122;35.582;2022-07-29T05:24:27;1.27;;;0.50;;
47758;SDS011;33520;55.122;35.582;2022-07-29T05:26:54;0.80;;;0.50;;
47758;SDS011;33520;55.122;35.582;2022-07-29T05:29:20;2.10;;;0.50;;
47758;SDS011;33520;55.122;35.582;2022-07-29T05:31:46;0.73;;;0.40;;
47758;SDS011;33520;55.122;35.582;2022-07-29T05:34:13;2.53;;;0.90;;
47758;SDS011;33520;55.122;35.582;2022-07-29T05:36:39;0.63;;;0.35;;
47758;SDS011;33520;55.122;35.582;2022-07-29T05:39:05;1.13;;;0.60;;
47758;SDS011;33520;55.122;35.582;2022-07-29T05:41:32;2.42;;;0.70;;
47758;SDS011;33520;55.122;35.582;2022-07-29T05:43:58;2.05;;;0.57;;
47758;SDS011;33520;55.122;35.582;2022-07-29T05:46:24;4.93;;;0.70;;
47758;SDS011;33520;55.122;35.582;2022-07-29T05:48:51;2.45;;;0.50;;
47758;SDS011;33520;55.122;35.582;2022-07-29T05:51:17;1.48;;;0.80;;
47758;SDS011;33520;55.122;35.582;2022-07-29T05:53:43;2.08;;;0.50;;
47758;SDS011;33520;55.122;35.582;2022-07-29T05:56:10;1.80;;;0.60;;
47758;SDS011;33520;55.122;35.582;2022-07-29T05:58:36;2.75;;;0.60;;
47758;SDS011;33520;55.122;35.582;2022-07-29T06:01:03;1.88;;;0.57;;
47758;SDS011;33520;55.122;35.582;2022-07-29T06:03:29;1.80;;;0.77;;
47758;SDS011;33520;55.122;35.582;2022-07-29T06:05:56;0.82;;;0.70;;
47758;SDS011;33520;55.122;35.582;2022-07-29T06:08:22;1.27;;;0.60;;
47758;SDS011;33520;55.122;35.582;2022-07-29T06:10:49;1.13;;;0.43;;
47758;SDS011;33520;55.122;35.582;2022-07-29T06:13:15;1.20;;;0.57;;
47758;SDS011;33520;55.122;35.582;2022-07-29T06:15:42;3.20;;;1.20;;
47758;SDS011;33520;55.122;35.582;2022-07-29T06:18:08;1.85;;;0.73;;
47758;SDS011;33520;55.122;35.582;2022-07-29T06:20:36;1.77;;;0.80;;
47758;SDS011;33520;55.122;35.582;2022-07-29T06:23:02;7.70;;;1.08;;
47758;SDS011;33520;55.122;35.582;2022-07-29T06:25:30;2.40;;;0.60;;
47758;SDS011;33520;55.122;35.582;2022-07-29T06:27:57;2.22;;;0.60;;
47758;SDS011;33520;55.122;35.582;2022-07-29T06:30:24;1.95;;;0.70;;
47758;SDS011;33520;55.122;35.582;2022-07-29T06:32:50;1.08;;;0.65;;
47758;SDS011;33520;55.122;35.582;2022-07-29T06:35:17;1.52;;;0.70;;
47758;SDS011;33520;55.122;35.582;2022-07-29T06:37:43;2.10;;;0.60;;
47758;SDS011;33520;55.122;35.582;2022-07-29T06:40:09;1.63;;;0.80;;
47758;SDS011;33520;55.122;35.582;2022-07-29T06:42:54;1.23;;;0.73;;
47758;SDS011;33520;55.122;35.582;2022-07-29T06:45:21;1.17;;;0.70;;
47758;SDS011;33520;55.122;35.582;2022-07-29T06:47:47;2.13;;;0.50;;
47758;SDS011;33520;55.122;35.582;2022-07-29T06:50:14;0.88;;;0.60;;
47758;SDS011;33520;55.122;35.582;2022-07-29T06:52:40;1.27;;;0.57;;
47758;SDS011;33520;55.122;35.582;2022-07-29T06:55:07;1.58;;;0.75;;
47758;SDS011;33520;55.122;35.582;2022-07-29T06:57:34;0.88;;;0.60;;
47758;SDS011;33520;55.122;35.582;2022-07-29T07:00:00;1.92;;;0.70;;
47758;SDS011;33520;55.122;35.582;2022-07-29T07:02:27;1.23;;;0.60;;
47758;SDS011;33520;55.122;35.582;2022-07-29T07:04:53;0.95;;;0.45;;
47758;SDS011;33520;55.122;35.582;2022-07-29T07:07:19;1.17;;;0.50;;
47758;SDS011;33520;55.122;35.582;2022-07-29T07:09:46;2.22;;;0.80;;
47758;SDS011;33520;55.122;35.582;2022-07-29T07:12:12;1.92;;;0.60;;
47758;SDS011;33520;55.122;35.582;2022-07-29T07:14:38;0.73;;;0.52;;
47758;SDS011;33520;55.122;35.582;2022-07-29T07:17:06;5.18;;;0.77;;
47758;SDS011;33520;55.122;35.582;2022-07-29T07:19:33;2.13;;;0.82;;
47758;SDS011;33520;55.122;35.582;2022-07-29T07:21:59;1.15;;;0.85;;
47758;SDS011;33520;55.122;35.582;2022-07-29T07:24:26;2.35;;;0.90;;
47758;SDS011;33520;55.122;35.582;2022-07-29T07:26:53;1.55;;;0.60;;
47758;SDS011;33520;55.122;35.582;2022-07-29T07:29:19;1.48;;;0.60;;
47758;SDS011;33520;55.122;35.582;2022-07-29T07:31:46;1.70;;;0.60;;
47758;SDS011;33520;55.122;35.582;2022-07-29T07:34:12;0.70;;;0.50;;
47758;SDS011;33520;55.122;35.582;2022-07-29T07:36:38;2.65;;;0.70;;
47758;SDS011;33520;55.122;35.582;2022-07-29T07:39:05;1.10;;;0.98;;
47758;SDS011;33520;55.122;35.582;2022-07-29T07:41:32;4.00;;;0.80;;
47758;SDS011;33520;55.122;35.582;2022-07-29T07:43:58;4.28;;;0.57;;
47758;SDS011;33520;55.122;35.582;2022-07-29T07:46:25;4.60;;;1.35;;
47758;SDS011;33520;55.122;35.582;2022-07-29T07:48:52;2.25;;;0.75;;
47758;SDS011;33520;55.122;35.582;2022-07-29T07:51:18;1.88;;;0.55;;
47758;SDS011;33520;55.122;35.582;2022-07-29T07:53:50;0.60;;;0.45;;
47758;SDS011;33520;55.122;35.582;2022-07-29T07:56:17;6.35;;;1.00;;
47758;SDS011;33520;55.122;35.582;2022-07-29T07:58:43;0.95;;;0.73;;
47758;SDS011;33520;55.122;35.582;2022-07-29T08:01:10;3.33;;;0.60;;
47758;SDS011;33520;55.122;35.582;2022-07-29T08:03:36;1.35;;;0.70;;
47758;SDS011;33520;55.122;35.582;2022-07-29T08:06:03;1.17;;;0.50;;
47758;SDS011;33520;55.122;35.582;2022-07-29T08:08:29;2.90;;;1.00;;
47758;SDS011;33520;55.122;35.582;2022-07-29T08:10:56;1.83;;;0.73;;
47758;SDS011;33520;55.122;35.582;2022-07-29T08:13:24;1.55;;;0.60;;
47758;SDS011;33520;55.122;35.582;2022-07-29T08:15:53;0.98;;;0.60;;
47758;SDS011;33520;55.122;35.582;2022-07-29T08:18:23;1.33;;;0.70;;
47758;SDS011;33520;55.122;35.582;2022-07-29T08:20:50;1.65;;;0.60;;
47758;SDS011;33520;55.122;35.582;2022-07-29T08:23:16;1.63;;;0.68;;
47758;SDS011;33520;55.122;35.582;2022-07-29T08:25:48;0.88;;;0.60;;
47758;SDS011;33520;55.122;35.582;2022-07-29T08:28:15;2.15;;;0.80;;
47758;SDS011;33520;55.122;35.582;2022-07-29T08:30:42;1.58;;;0.73;;
47758;SDS011;33520;55.122;35.582;2022-07-29T08:33:08;1.88;;;0.80;;
47758;SDS011;33520;55.122;35.582;2022-07-29T08:35:35;1.60;;;0.70;;
47758;SDS011;33520;55.122;35.582;2022-07-29T08:38:01;2.80;;;0.82;;
47758;SDS011;33520;55.122;35.582;2022-07-29T08:40:28;1.20;;;0.60;;
47758;SDS011;33520;55.122;35.582;2022-07-29T08:42:55;1.00;;;0.50;;
47758;SDS011;33520;55.122;35.582;2022-07-29T08:45:21;1.02;;;0.70;;
47758;SDS011;33520;55.122;35.582;2022-07-29T08:47:49;2.25;;;0.75;;
47758;SDS011;33520;55.122;35.582;2022-07-29T08:50:15;2.35;;;0.80;;
47758;SDS011;33520;55.122;35.582;2022-07-29T08:52:41;1.00;;;0.63;;
47758;SDS011;33520;55.122;35.582;2022-07-29T08:55:09;3.00;;;0.80;;
47758;SDS011;33520;55.122;35.582;2022-07-29T08:57:36;1.52;;;0.60;;
47758;SDS011;33520;55.122;35.582;2022-07-29T09:00:05;1.35;;;0.60;;
47758;SDS011;33520;55.122;35.582;2022-07-29T09:02:35;1.05;;;0.40;;
47758;SDS011;33520;55.122;35.582;2022-07-29T09:05:02;2.95;;;0.70;;
47758;SDS011;33520;55.122;35.582;2022-07-29T09:07:28;2.60;;;0.77;;
47758;SDS011;33520;55.122;35.582;2022-07-29T09:09:55;3.60;;;0.90;;
47758;SDS011;33520;55.122;35.582;2022-07-29T09:12:21;2.13;;;1.10;;
47758;SDS011;33520;55.122;35.582;2022-07-29T09:14:50;2.40;;;0.80;;
47758;SDS011;33520;55.122;35.582;2022-07-29T09:17:17;4.22;;;0.70;;
47758;SDS011;33520;55.122;35.582;2022-07-29T09:19:45;1.55;;;0.40;;
47758;SDS011;33520;55.122;35.582;2022-07-29T09:22:11;0.90;;;0.57;;
47758;SDS011;33520;55.122;35.582;2022-07-29T09:24:42;1.08;;;0.52;;
47758;SDS011;33520;55.122;35.582;2022-07-29T09:30:04;2.65;;;0.70;;
47758;SDS011;33520;55.122;35.582;2022-07-29T09:32:32;1.48;;;0.60;;
47758;SDS011;33520;55.122;35.582;2022-07-29T09:35:21;4.45;;;0.95;;
47758;SDS011;33520;55.122;35.582;2022-07-29T09:37:49;2.33;;;0.60;;
47758;SDS011;33520;55.122;35.582;2022-07-29T09:40:28;2.28;;;0.68;;
47758;SDS011;33520;55.122;35.582;2022-07-29T09:42:54;0.68;;;0.50;;
47758;SDS011;33520;55.122;35.582;2022-07-29T09:45:32;2.08;;;0.70;;
47758;SDS011;33520;55.122;35.582;2022-07-29T09:47:59;1.98;;;0.60;;
47758;SDS011;33520;55.122;35.582;2022-07-29T09:50:41;1.95;;;0.60;;
47758;SDS011;33520;55.122;35.582;2022-07-29T09:53:09;1.65;;;0.70;;
47758;SDS011;33520;55.122;35.582;2022-07-29T09:58:32;3.53;;;0.70;;
47758;SDS011;33520;55.122;35.582;2022-07-29T10:01:01;3.00;;;0.93;;
47758;SDS011;33520;55.122;35.582;2022-07-29T10:03:28;1.13;;;0.70;;
47758;SDS011;33520;55.122;35.582;2022-07-29T10:06:08;1.80;;;0.90;;
47758;SDS011;33520;55.122;35.582;2022-07-29T10:08:37;5.78;;;0.80;;
47758;SDS011;33520;55.122;35.582;2022-07-29T10:13:43;0.80;;;0.70;;
47758;SDS011;33520;55.122;35.582;2022-07-29T10:16:10;0.82;;;0.60;;
47758;SDS011;33520;55.122;35.582;2022-07-29T10:18:38;1.58;;;0.60;;
47758;SDS011;33520;55.122;35.582;2022-07-29T10:21:05;1.00;;;0.70;;
47758;SDS011;33520;55.122;35.582;2022-07-29T10:23:32;2.15;;;0.77;;
47758;SDS011;33520;55.122;35.582;2022-07-29T10:26:00;2.90;;;0.70;;
47758;SDS011;33520;55.122;35.582;2022-07-29T10:28:26;4.60;;;0.82;;
47758;SDS011;33520;55.122;35.582;2022-07-29T10:30:57;3.72;;;0.90;;
47758;SDS011;33520;55.122;35.582;2022-07-29T10:33:39;2.50;;;0.90;;
47758;SDS011;33520;55.122;35.582;2022-07-29T10:44:40;1.48;;;0.60;;
47758;SDS011;33520;55.122;35.582;2022-07-29T10:47:07;2.22;;;0.80;;
47758;SDS011;33520;55.122;35.582;2022-07-29T10:49:34;0.88;;;0.60;;
47758;SDS011;33520;55.122;35.582;2022-07-29T10:52:08;3.95;;;0.85;;
47758;SDS011;33520;55.122;35.582;2022-07-29T10:57:12;2.75;;;1.20;;
47758;SDS011;33520;55.122;35.582;2022-07-29T10:59:48;1.45;;;0.70;;
47758;SDS011;33520;55.122;35.582;2022-07-29T11:05:00;2.20;;;0.80;;
47758;SDS011;33520;55.122;35.582;2022-07-29T11:07:31;1.92;;;0.77;;
47758;SDS011;33520;55.122;35.582;2022-07-29T11:15:12;1.13;;;0.75;;
47758;SDS011;33520;55.122;35.582;2022-07-29T11:31:39;2.85;;;1.13;;
47758;SDS011;33520;55.122;35.582;2022-07-29T11:39:41;2.10;;;1.00;;
47758;SDS011;33520;55.122;35.582;2022-07-29T11:45:01;5.68;;;1.33;;
47758;SDS011;33520;55.122;35.582;2022-07-29T11:47:33;7.43;;;1.00;;
47758;SDS011;33520;55.122;35.582;2022-07-29T11:50:05;1.10;;;0.50;;
47758;SDS011;33520;55.122;35.582;2022-07-29T11:52:40;2.53;;;0.98;;
47758;SDS011;33520;55.122;35.582;2022-07-29T11:55:14;3.97;;;1.00;;
47758;SDS011;33520;55.122;35.582;2022-07-29T11:57:59;1.83;;;0.88;;
47758;SDS011;33520;55.122;35.582;2022-07-29T12:00:36;1.13;;;0.77;;
47758;SDS011;33520;55.122;35.582;2022-07-29T12:03:05;1.95;;;0.80;;
47758;SDS011;33520;55.122;35.582;2022-07-29T12:05:34;2.13;;;0.90;;
47758;SDS011;33520;55.122;35.582;2022-07-29T12:08:06;1.95;;;0.80;;
47758;SDS011;33520;55.122;35.582;2022-07-29T12:10:41;2.00;;;0.60;;
47758;SDS011;33520;55.122;35.582;2022-07-29T12:13:08;4.15;;;1.20;;
47758;SDS011;33520;55.122;35.582;2022-07-29T12:15:36;2.03;;;0.82;;
47758;SDS011;33520;55.122;35.582;2022-07-29T12:18:09;5.50;;;1.30;;
47758;SDS011;33520;55.122;35.582;2022-07-29T12:20:46;9.95;;;1.92;;
47758;SDS011;33520;55.122;35.582;2022-07-29T12:23:13;2.83;;;1.00;;
47758;SDS011;33520;55.122;35.582;2022-07-29T12:25:42;4.40;;;1.08;;
47758;SDS011;33520;55.122;35.582;2022-07-29T12:28:10;3.28;;;1.10;;
47758;SDS011;33520;55.122;35.582;2022-07-29T12:30:46;2.90;;;0.88;;
47758;SDS011;33520;55.122;35.582;2022-07-29T12:33:18;2.75;;;1.00;;
47758;SDS011;33520;55.122;35.582;2022-07-29T12:35:47;2.35;;;0.90;;
47758;SDS011;33520;55.122;35.582;2022-07-29T12:38:15;2.30;;;1.40;;
47758;SDS011;33520;55.122;35.582;2022-07-29T12:40:43;4.40;;;1.20;;
47758;SDS011;33520;55.122;35.582;2022-07-29T12:45:37;1.77;;;0.80;;
47758;SDS011;33520;55.122;35.582;2022-07-29T12:48:05;4.65;;;0.90;;
47758;SDS011;33520;55.122;35.582;2022-07-29T12:50:34;5.57;;;0.80;;
47758;SDS011;33520;55.122;35.582;2022-07-29T12:53:09;1.27;;;0.65;;
47758;SDS011;33520;55.122;35.582;2022-07-29T12:55:44;3.75;;;0.93;;
47758;SDS011;33520;55.122;35.582;2022-07-29T12:58:25;3.45;;;1.13;;
47758;SDS011;33520;55.122;35.582;2022-07-29T13:01:00;1.05;;;0.60;;
47758;SDS011;33520;55.122;35.582;2022-07-29T13:03:26;4.78;;;0.95;;
47758;SDS011;33520;55.122;35.582;2022-07-29T13:05:52;2.45;;;0.90;;
47758;SDS011;33520;55.122;35.582;2022-07-29T13:08:19;2.05;;;0.63;;
47758;SDS011;33520;55.122;35.582;2022-07-29T13:10:45;2.33;;;0.90;;
47758;SDS011;33520;55.122;35.582;2022-07-29T13:13:13;3.72;;;1.08;;
47758;SDS011;33520;55.122;35.582;2022-07-29T13:15:41;1.23;;;0.73;;
47758;SDS011;33520;55.122;35.582;2022-07-29T13:18:28;3.08;;;1.20;;
47758;SDS011;33520;55.122;35.582;2022-07-29T13:20:56;2.22;;;0.82;;
47758;SDS011;33520;55.122;35.582;2022-07-29T13:23:22;2.92;;;1.23;;
47758;SDS011;33520;55.122;35.582;2022-07-29T13:25:49;2.53;;;0.90;;
47758;SDS011;33520;55.122;35.582;2022-07-29T13:28:15;2.13;;;0.70;;
47758;SDS011;33520;55.122;35.582;2022-07-29T13:30:42;2.58;;;1.30;;
47758;SDS011;33520;55.122;35.582;2022-07-29T13:33:08;3.00;;;0.95;;
47758;SDS011;33520;55.122;35.582;2022-07-29T13:35:34;1.48;;;0.57;;
47758;SDS011;33520;55.122;35.582;2022-07-29T13:38:01;4.32;;;1.00;;
47758;SDS011;33520;55.122;35.582;2022-07-29T13:40:27;3.42;;;1.00;;
47758;SDS011;33520;55.122;35.582;2022-07-29T13:42:55;2.33;;;0.80;;
47758;SDS011;33520;55.122;35.582;2022-07-29T13:45:21;2.20;;;0.70;;
47758;SDS011;33520;55.122;35.582;2022-07-29T13:47:47;1.00;;;0.50;;
47758;SDS011;33520;55.122;35.582;2022-07-29T13:50:13;1.60;;;0.68;;
47758;SDS011;33520;55.122;35.582;2022-07-29T13:52:39;4.70;;;1.35;;
47758;SDS011;33520;55.122;35.582;2022-07-29T13:55:06;2.88;;;0.68;;
47758;SDS011;33520;55.122;35.582;2022-07-29T13:57:33;1.77;;;0.90;;
47758;SDS011;33520;55.122;35.582;2022-07-29T14:00:00;3.65;;;1.45;;
47758;SDS011;33520;55.122;35.582;2022-07-29T14:02:26;3.15;;;1.02;;
47758;SDS011;33520;55.122;35.582;2022-07-29T14:04:53;3.22;;;1.08;;
47758;SDS011;33520;55.122;35.582;2022-07-29T14:07:19;1.27;;;0.70;;
47758;SDS011;33520;55.122;35.582;2022-07-29T14:09:48;1.58;;;0.77;;
47758;SDS011;33520;55.122;35.582;2022-07-29T14:12:14;2.38;;;0.80;;
47758;SDS011;33520;55.122;35.582;2022-07-29T14:14:40;2.22;;;0.98;;
47758;SDS011;33520;55.122;35.582;2022-07-29T14:17:07;2.17;;;0.93;;
47758;SDS011;33520;55.122;35.582;2022-07-29T14:19:34;1.48;;;0.63;;
47758;SDS011;33520;55.122;35.582;2022-07-29T14:22:02;1.55;;;0.77;;
47758;SDS011;33520;55.122;35.582;2022-07-29T14:24:29;1.27;;;0.70;;
47758;SDS011;33520;55.122;35.582;2022-07-29T14:26:55;2.60;;;0.95;;
47758;SDS011;33520;55.122;35.582;2022-07-29T14:29:22;6.60;;;1.83;;
47758;SDS011;33520;55.122;35.582;2022-07-29T14:31:49;1.30;;;0.80;;
47758;SDS011;33520;55.122;35.582;2022-07-29T14:34:15;5.18;;;0.80;;
47758;SDS011;33520;55.122;35.582;2022-07-29T14:36:41;2.17;;;0.80;;
47758;SDS011;33520;55.122;35.582;2022-07-29T14:39:07;2.47;;;0.90;;
47758;SDS011;33520;55.122;35.582;2022-07-29T14:41:34;3.25;;;1.23;;
47758;SDS011;33520;55.122;35.582;2022-07-29T14:44:00;2.13;;;0.90;;
47758;SDS011;33520;55.122;35.582;2022-07-29T14:46:27;3.03;;;0.77;;
47758;SDS011;33520;55.122;35.582;2022-07-29T14:48:53;2.65;;;0.80;;
47758;SDS011;33520;55.122;35.582;2022-07-29T14:51:20;1.73;;;0.50;;
47758;SDS011;33520;55.122;35.582;2022-07-29T14:53:46;0.95;;;0.63;;
47758;SDS011;33520;55.122;35.582;2022-07-29T14:56:12;1.17;;;0.60;;
47758;SDS011;33520;55.122;35.582;2022-07-29T14:58:39;3.45;;;0.50;;
47758;SDS011;33520;55.122;35.582;2022-07-29T15:01:05;1.00;;;0.65;;
47758;SDS011;33520;55.122;35.582;2022-07-29T15:03:32;2.92;;;0.75;;
47758;SDS011;33520;55.122;35.582;2022-07-29T15:05:58;2.22;;;0.52;;
47758;SDS011;33520;55.122;35.582;2022-07-29T15:08:24;1.52;;;0.50;;
47758;SDS011;33520;55.122;35.582;2022-07-29T15:10:53;1.83;;;0.70;;
47758;SDS011;33520;55.122;35.582;2022-07-29T15:13:19;1.15;;;0.57;;
47758;SDS011;33520;55.122;35.582;2022-07-29T15:15:46;2.70;;;0.50;;
47758;SDS011;33520;55.122;35.582;2022-07-29T15:18:12;2.10;;;0.73;;
47758;SDS011;33520;55.122;35.582;2022-07-29T15:20:38;2.30;;;0.55;;
47758;SDS011;33520;55.122;35.582;2022-07-29T15:23:04;0.93;;;0.70;;
47758;SDS011;33520;55.122;35.582;2022-07-29T15:25:35;1.52;;;0.77;;
47758;SDS011;33520;55.122;35.582;2022-07-29T15:28:02;3.70;;;0.90;;
47758;SDS011;33520;55.122;35.582;2022-07-29T15:30:32;4.22;;;1.63;;
47758;SDS011;33520;55.122;35.582;2022-07-29T15:33:03;2.33;;;0.70;;
47758;SDS011;33520;55.122;35.582;2022-07-29T15:35:29;0.70;;;0.47;;
47758;SDS011;33520;55.122;35.582;2022-07-29T15:37:55;1.35;;;0.55;;
47758;SDS011;33520;55.122;35.582;2022-07-29T15:40:22;3.85;;;0.90;;
47758;SDS011;33520;55.122;35.582;2022-07-29T15:42:48;1.80;;;0.57;;
47758;SDS011;33520;55.122;35.582;2022-07-29T15:45:14;1.08;;;0.50;;
47758;SDS011;33520;55.122;35.582;2022-07-29T15:47:41;2.13;;;0.80;;
47758;SDS011;33520;55.122;35.582;2022-07-29T15:50:07;0.40;;;0.40;;
47758;SDS011;33520;55.122;35.582;2022-07-29T15:52:39;0.85;;;0.40;;
47758;SDS011;33520;55.122;35.582;2022-07-29T15:55:05;1.70;;;0.43;;
47758;SDS011;33520;55.122;35.582;2022-07-29T15:57:32;1.33;;;0.47;;
47758;SDS011;33520;55.122;35.582;2022-07-29T15:59:59;0.40;;;0.38;;
47758;SDS011;33520;55.122;35.582;2022-07-29T16:02:25;1.13;;;0.70;;
47758;SDS011;33520;55.122;35.582;2022-07-29T16:04:52;1.05;;;0.50;;